Sunday, October 22, 2017, 5:06 PM EDT
Back to Local

KMQE, Milton Blue Hill Observ

Location: Milton, MA, United States Lat: 42.217
Local Time: 5:06 PM EDT (21:06 GMT) Lon: -71.117
Time Zone: US/Eastern Elev: 629 ft

Show me the last for .
Show Coded

Time T Td Feel RH Dir Speed Gust Alt SLP Vis Weather Sky Remarks
2017-10-22 15:56 60 54 - 80 70° 14 - 30.37 30.40 0 None
2017-10-22 14:56 66 53 - 63 70° 12 - 30.38 30.40 0 None
2017-10-22 13:56 69 50 - 50 60° 10 - 30.38 30.41 0 6-hr Min Temp (2pm): 61.0°F
6-hr Max Temp (2pm): 73.0°F
2017-10-22 12:56 71 48 75 43 40° 8 - 30.39 30.42 0 None
2017-10-22 11:56 71 49 76 45 - Calm - 30.40 30.42 0 None
2017-10-22 10:56 69 44 - 40 100° 5 - 30.40 30.43 0 None
2017-10-22 09:56 69 42 - 37 60° 5 - 30.41 30.43 0 None
2017-10-22 08:56 63 40 - 42 30° 7 - 30.41 30.43 0 None
2017-10-22 07:56 62 39 - 42 360° 9 - 30.38 30.41 0 6-hr Min Temp (8am): 59.0°F
6-hr Max Temp (8am): 63.0°F
2017-10-22 06:56 62 39 - 42 340° 9 - 30.37 30.39 0 None
2017-10-22 05:56 61 40 - 45 320° 7 - 30.35 30.38 0 None
2017-10-22 04:56 63 39 - 41 330° 7 - 30.34 30.36 0 None
2017-10-22 03:56 60 41 - 49 300° 9 - 30.33 30.36 0 None
2017-10-22 02:56 60 41 - 49 280° 12 - 30.33 30.35 0 None
2017-10-22 01:56 62 40 - 44 270° 10 - 30.33 30.35 0 6-hr Min Temp (2am): 60.1°F
6-hr Max Temp (2am): 63.0°F
2017-10-22 00:56 62 40 - 44 260° 9 - 30.33 30.35 0 24-hr Min Temp (1am): 53.1°F
24-hr Max Temp (1am): 75.9°F
2017-10-21 23:56 62 41 - 45 270° 12 - 30.33 30.35 0 None
2017-10-21 22:56 61 43 - 51 250° 10 - 30.33 30.36 0 None
2017-10-21 21:56 62 43 - 49 230° 10 - 30.32 30.35 0 None
2017-10-21 20:56 63 45 - 51 230° 12 - 30.31 30.34 0 None
2017-10-21 19:56 61 45 - 55 190° 7 - 30.31 30.34 0 6-hr Min Temp (8pm): 61.0°F
6-hr Max Temp (8pm): 75.9°F
2017-10-21 18:56 63 45 - 51 210° 9 - 30.29 30.32 0 None
2017-10-21 17:56 66 44 - 44 220° 9 - 30.28 30.31 0 None

Support USWX by starting your Amazon purchase here.